Time;durP1;ratioP1;P1;durP2;ratioP2;P2;SDS_P1;SDS_P2;PMS_P1;PMS_P2;Temp;Humidity;BMP_temperature;BMP_pressure;BME280_temperature;BME280_humidity;BME280_pressure;Samples;Min_cycle;Max_cycle;Signal;HPM_P1;HPM_P2
2021/01/24 00:00:34;;;;;;;21.50;10.75;;;;;;;3.53;79.61;96189.48;1660301;86;21181;-64
2021/01/24 00:03:04;;;;;;;28.42;12.33;;;;;;;3.52;79.73;96186.57;1659905;85;21153;-73
2021/01/24 00:05:32;;;;;;;25.57;12.23;;;;;;;3.52;79.77;96182.25;1660231;86;21167;-64
2021/01/24 00:08:04;;;;;;;24.23;12.37;;;;;;;3.51;80.01;96192.64;1660109;86;21200;-75
2021/01/24 00:10:32;;;;;;;26.40;12.37;;;;;;;3.53;79.79;96181.78;1659925;86;21255;-64
2021/01/24 00:13:00;;;;;;;24.47;11.88;;;;;;;3.56;79.90;96183.58;1660053;86;21180;-64
2021/01/24 00:15:29;;;;;;;23.87;12.28;;;;;;;3.59;79.63;96175.59;1660420;86;21184;-64
2021/01/24 00:17:57;;;;;;;23.95;10.58;;;;;;;3.63;79.47;96174.83;1659548;86;21192;-64
2021/01/24 00:20:26;;;;;;;18.60;10.68;;;;;;;3.66;79.27;96166.83;1659632;86;21314;-64
2021/01/24 00:22:54;;;;;;;18.50;11.57;;;;;;;3.67;79.09;96164.61;1659500;86;21137;-64
2021/01/24 00:25:22;;;;;;;21.33;11.20;;;;;;;3.63;79.24;96167.94;1659643;86;21169;-64
2021/01/24 00:27:51;;;;;;;16.27;9.75;;;;;;;3.62;79.18;96165.53;1659806;86;21159;-64
2021/01/24 00:30:41;;;;;;;17.92;10.23;;;;;;;3.59;79.31;96166.61;1659661;86;21197;-64
2021/01/24 00:33:09;;;;;;;26.10;10.48;;;;;;;3.59;79.21;96161.48;1678731;84;21577;-64
2021/01/24 00:35:38;;;;;;;15.95;10.20;;;;;;;3.59;79.30;96149.92;1678594;85;21239;-64
2021/01/24 00:38:06;;;;;;;18.15;10.13;;;;;;;3.60;79.39;96155.88;1678799;84;21178;-64
2021/01/24 00:40:34;;;;;;;27.20;12.85;;;;;;;3.60;79.23;96157.97;1678903;85;21178;-64
2021/01/24 00:43:03;;;;;;;23.77;13.25;;;;;;;3.57;79.55;96154.88;1679014;84;21179;-64
2021/01/24 00:45:31;;;;;;;27.50;11.57;;;;;;;3.54;79.95;96152.11;1678537;84;21175;-65
2021/01/24 00:48:00;;;;;;;19.48;11.08;;;;;;;3.52;80.02;96148.89;1678751;84;21576;-64
2021/01/24 00:50:29;;;;;;;25.20;11.68;;;;;;;3.52;79.94;96145.51;1679007;85;21253;-64
2021/01/24 00:52:58;;;;;;;16.75;10.10;;;;;;;3.53;79.86;96141.53;1678843;85;21230;-63
2021/01/24 00:55:26;;;;;;;28.77;11.63;;;;;;;3.52;79.93;96133.49;1679036;84;21147;-64
2021/01/24 00:57:54;;;;;;;22.17;10.82;;;;;;;3.49;80.21;96135.06;1679052;85;21181;-64
2021/01/24 01:00:23;;;;;;;16.05;9.33;;;;;;;3.49;79.97;96127.84;1678941;85;21215;-64
2021/01/24 01:02:50;;;;;;;18.37;10.28;;;;;;;3.51;79.87;96126.73;1678801;84;21218;-64
2021/01/24 01:05:19;;;;;;;14.90;9.78;;;;;;;3.49;79.95;96126.55;1678931;85;21187;-64
2021/01/24 01:07:47;;;;;;;18.23;10.30;;;;;;;3.47;80.00;96124.59;1678977;84;21183;-64
2021/01/24 01:10:15;;;;;;;18.95;10.32;;;;;;;3.46;80.13;96112.27;1679186;84;21171;-64
2021/01/24 01:12:43;;;;;;;24.35;12.60;;;;;;;3.41;80.38;96114.45;1678938;84;21183;-64
2021/01/24 01:15:13;;;;;;;22.73;11.20;;;;;;;3.39;80.35;96111.67;1678915;84;21238;-65
2021/01/24 01:17:42;;;;;;;19.27;9.63;;;;;;;3.38;80.24;96110.89;1678855;85;21186;-64
2021/01/24 01:20:23;;;;;;;20.45;10.08;;;;;;;3.35;80.28;96110.69;1766978;80;21293;-64
2021/01/24 01:22:52;;;;;;;15.45;10.53;;;;;;;3.30;80.64;96118.02;1752783;80;21175;-64
2021/01/24 01:25:21;;;;;;;16.80;9.65;;;;;;;3.28;80.89;96110.92;1768390;80;21179;-64
2021/01/24 01:27:49;;;;;;;22.13;10.30;;;;;;;3.29;80.57;96116.40;1768354;80;21442;-64
2021/01/24 01:30:18;;;;;;;14.95;9.23;;;;;;;3.34;80.37;96119.83;1768404;80;21203;-64
2021/01/24 01:32:47;;;;;;;16.15;9.03;;;;;;;3.35;80.26;96113.25;1768236;80;21325;-64
2021/01/24 01:35:15;;;;;;;11.18;7.22;;;;;;;3.40;80.44;96109.45;1739126;81;21179;-64
2021/01/24 01:37:43;;;;;;;18.95;10.40;;;;;;;3.45;80.21;96105.98;1768486;80;21162;-64
2021/01/24 01:40:33;;;;;;;16.20;9.60;;;;;;;3.49;79.93;96105.55;1752498;82;21155;-66
2021/01/24 01:43:01;;;;;;;14.18;9.43;;;;;;;3.56;79.91;96098.08;1732097;81;21285;-68
2021/01/24 01:45:29;;;;;;;15.60;9.50;;;;;;;3.64;79.78;96104.11;1731976;81;21301;-61
2021/01/24 01:47:57;;;;;;;15.85;10.05;;;;;;;3.69;79.54;96097.27;1731977;81;21834;-64
2021/01/24 01:50:27;;;;;;;13.25;9.25;;;;;;;3.76;79.49;96087.55;1732078;81;21349;-65
2021/01/24 01:52:59;;;;;;;15.63;9.08;;;;;;;3.78;79.23;96087.38;1731808;81;21567;-65
2021/01/24 01:55:27;;;;;;;14.25;9.33;;;;;;;3.84;79.21;96082.96;1731857;81;21301;-65
2021/01/24 01:57:56;;;;;;;14.95;9.63;;;;;;;3.88;78.93;96076.58;1731962;81;21317;-64
2021/01/24 02:00:50;;;;;;;15.03;9.50;;;;;;;3.82;79.16;96077.95;1731793;81;21195;-63
2021/01/24 02:03:44;;;;;;;17.32;9.78;;;;;;;3.85;79.13;96078.64;1644751;87;21632;-63
2021/01/24 02:06:39;;;;;;;15.30;8.28;;;;;;;3.79;79.30;96076.98;1645011;87;21237;-62
2021/01/24 02:09:19;;;;;;;11.57;8.83;;;;;;;3.86;79.33;96074.63;1590932;89;21206;-62
2021/01/24 02:12:07;;;;;;;13.83;8.83;;;;;;;3.88;78.95;96080.43;1590856;89;21278;-62
2021/01/24 02:14:40;;;;;;;11.35;8.20;;;;;;;3.86;78.99;96082.80;1622871;87;21246;-65
2021/01/24 02:17:13;;;;;;;19.70;9.93;;;;;;;3.83;78.92;96079.58;1644836;86;21182;-64
2021/01/24 02:19:57;;;;;;;19.32;10.55;;;;;;;3.78;78.89;96079.67;1613064;88;21243;-65
2021/01/24 02:22:36;;;;;;;19.10;10.68;;;;;;;3.76;78.83;96073.90;1613137;89;21177;-65
2021/01/24 02:25:44;;;;;;;18.48;10.32;;;;;;;3.57;79.73;96084.30;1594716;89;21173;-63
2021/01/24 02:28:51;;;;;;;21.90;11.85;;;;;;;3.52;79.91;96082.16;1612890;89;21196;-63
2021/01/24 02:31:21;;;;;;;33.17;16.67;;;;;;;3.37;81.14;96084.08;1654364;86;34386;-63
2021/01/24 02:33:51;;;;;;;22.07;12.40;;;;;;;3.48;80.94;96082.59;1668733;84;21158;-65
2021/01/24 02:36:21;;;;;;;21.25;11.70;;;;;;;3.47;80.69;96080.50;1668617;86;21410;-65
2021/01/24 02:38:50;;;;;;;23.77;13.30;;;;;;;3.49;80.85;96082.94;1649415;86;21206;-65
2021/01/24 02:41:19;;;;;;;20.95;11.57;;;;;;;3.50;81.00;96093.03;1668772;86;21199;-65
2021/01/24 02:43:49;;;;;;;22.48;11.50;;;;;;;3.52;80.90;96094.19;1668840;86;21191;-64
2021/01/24 02:46:17;;;;;;;23.85;12.23;;;;;;;3.55;80.65;96093.42;1668654;86;21155;-64
2021/01/24 02:48:48;;;;;;;20.55;11.55;;;;;;;3.58;80.40;96094.91;1668659;86;21686;-64
2021/01/24 02:51:18;;;;;;;22.50;11.83;;;;;;;3.61;80.25;96097.98;1668819;86;21593;-64
2021/01/24 02:53:49;;;;;;;16.93;10.82;;;;;;;3.64;80.21;96093.84;1668703;86;21179;-65
2021/01/24 02:56:18;;;;;;;22.52;12.93;;;;;;;3.66;80.24;96098.81;1668714;86;21178;-66
2021/01/24 02:58:46;;;;;;;21.48;12.35;;;;;;;3.64;80.48;96095.59;1649612;86;21979;-65
2021/01/24 03:01:15;;;;;;;19.48;10.98;;;;;;;3.61;80.65;96095.89;1668867;86;21215;-65
2021/01/24 03:03:44;;;;;;;23.57;12.45;;;;;;;3.59;80.85;96099.06;1668498;85;21171;-64
2021/01/24 03:06:14;;;;;;;22.15;12.60;;;;;;;3.52;81.29;96087.30;1668844;86;21176;-64
2021/01/24 03:08:42;;;;;;;22.40;12.30;;;;;;;3.52;81.39;96087.77;1668697;85;21143;-63
2021/01/24 03:11:13;;;;;;;24.18;12.20;;;;;;;3.35;83.23;96082.94;1649457;86;21131;-65
2021/01/24 03:14:12;;;;;;;23.32;11.55;;;;;;;3.38;82.69;96092.94;1668588;86;21592;-64
2021/01/24 03:16:42;;;;;;;18.80;11.57;;;;;;;3.41;82.28;96099.52;1661859;86;21223;-65
2021/01/24 03:19:13;;;;;;;22.65;11.25;;;;;;;3.43;81.90;96095.04;1668787;86;21151;-64
2021/01/24 03:21:43;;;;;;;22.02;11.18;;;;;;;3.46;81.65;96089.64;1668855;86;21163;-64
2021/01/24 03:24:15;;;;;;;25.50;12.80;;;;;;;3.45;82.00;96096.53;1668691;86;21304;-65
2021/01/24 03:26:45;;;;;;;19.50;11.95;;;;;;;3.42;82.21;96089.59;1668570;86;21163;-65
2021/01/24 03:29:14;;;;;;;21.25;10.48;;;;;;;3.38;82.16;96086.52;1668522;86;21262;-64
2021/01/24 03:31:43;;;;;;;24.60;11.50;;;;;;;3.37;82.50;96085.36;1669002;86;21564;-65
2021/01/24 03:34:22;;;;;;;24.15;11.10;;;;;;;3.29;82.97;96086.09;1649623;86;21191;-65
2021/01/24 03:36:58;;;;;;;19.87;11.73;;;;;;;3.30;83.71;96079.54;1823705;77;22750;-64
2021/01/24 03:39:27;;;;;;;21.70;12.15;;;;;;;3.21;83.88;96076.55;1827425;78;21313;-64
2021/01/24 03:41:55;;;;;;;21.80;11.28;;;;;;;3.18;84.60;96072.17;1760233;81;21152;-64
2021/01/24 03:44:23;;;;;;;23.52;9.35;;;;;;;3.09;85.24;96068.70;1686052;78;21175;-64
2021/01/24 03:46:51;;;;;;;15.90;8.73;;;;;;;3.14;84.86;96066.53;1680087;85;21180;-64
2021/01/24 03:49:21;;;;;;;15.50;8.55;;;;;;;3.17;84.22;96070.08;1680142;85;21553;-64
2021/01/24 03:51:49;;;;;;;13.53;8.38;;;;;;;3.18;84.54;96069.14;1680206;85;21149;-64
2021/01/24 03:54:17;;;;;;;14.58;8.18;;;;;;;3.21;84.37;96075.27;1680030;85;21311;-65
2021/01/24 03:56:45;;;;;;;11.57;7.67;;;;;;;3.22;84.33;96071.75;1680149;84;21255;-64
2021/01/24 03:59:13;;;;;;;16.60;8.93;;;;;;;3.27;84.10;96074.67;1680287;84;21228;-64
2021/01/24 04:01:41;;;;;;;16.60;7.03;;;;;;;3.18;84.91;96070.42;1680297;85;21586;-64
2021/01/24 04:04:10;;;;;;;15.80;8.15;;;;;;;3.23;84.79;96072.56;1680142;85;21224;-64
2021/01/24 04:06:38;;;;;;;13.95;8.10;;;;;;;3.21;84.95;96067.56;1680041;85;21157;-64
2021/01/24 04:09:06;;;;;;;13.38;6.87;;;;;;;3.28;84.71;96060.91;1679983;84;21205;-64
2021/01/24 04:11:34;;;;;;;11.93;7.08;;;;;;;3.38;84.16;96064.71;1679993;85;21172;-64
2021/01/24 04:14:24;;;;;;;14.33;7.47;;;;;;;3.45;83.76;96070.06;1680030;85;21178;-64
2021/01/24 04:16:52;;;;;;;14.15;8.60;;;;;;;3.50;83.49;96063.52;1656053;86;21154;-64
2021/01/24 04:19:21;;;;;;;13.53;6.80;;;;;;;3.52;83.65;96064.67;1630396;87;21194;-63
2021/01/24 04:21:49;;;;;;;17.20;6.80;;;;;;;3.53;83.78;96062.45;1649085;86;21225;-64
2021/01/24 04:24:17;;;;;;;12.15;8.13;;;;;;;3.63;83.44;96067.02;1630408;87;21249;-65
2021/01/24 04:26:45;;;;;;;17.77;7.85;;;;;;;3.71;83.20;96066.63;1630271;87;21266;-63
2021/01/24 04:29:13;;;;;;;17.80;7.08;;;;;;;3.72;82.78;96072.58;1648959;86;21167;-64
2021/01/24 04:31:43;;;;;;;14.23;8.35;;;;;;;3.75;82.72;96069.23;1630519;87;21198;-65
2021/01/24 04:34:11;;;;;;;9.75;6.78;;;;;;;3.77;82.83;96075.52;1648813;86;21207;-65
2021/01/24 04:36:41;;;;;;;10.38;6.80;;;;;;;3.77;82.56;96077.58;1630618;87;21209;-64
2021/01/24 04:39:09;;;;;;;10.08;5.62;;;;;;;3.85;82.68;96074.31;1630367;87;21201;-64
2021/01/24 04:41:38;;;;;;;13.78;6.42;;;;;;;3.97;82.45;96074.89;1630614;87;21260;-63
2021/01/24 04:44:07;;;;;;;14.65;8.20;;;;;;;4.03;82.00;96078.95;1630468;87;21218;-66
2021/01/24 04:46:36;;;;;;;14.10;8.18;;;;;;;4.05;81.79;96068.03;1648533;86;21207;-64
2021/01/24 04:49:04;;;;;;;14.33;8.35;;;;;;;4.11;82.01;96077.73;1629691;87;21219;-64
2021/01/24 04:51:33;;;;;;;19.17;9.65;;;;;;;4.18;81.90;96071.04;1629809;87;21201;-65
2021/01/24 04:54:23;;;;;;;16.17;10.15;;;;;;;4.23;81.61;96073.98;1648127;86;21324;-65
2021/01/24 04:56:51;;;;;;;17.77;8.08;;;;;;;4.21;81.10;96073.78;1619310;88;21246;-64
2021/01/24 04:59:20;;;;;;;16.93;8.88;;;;;;;4.22;81.35;96073.64;1619191;88;21231;-66
2021/01/24 05:01:49;;;;;;;17.85;8.95;;;;;;;4.20;81.12;96068.34;1619237;87;21612;-64
2021/01/24 05:04:18;;;;;;;20.27;9.53;;;;;;;4.14;81.08;96069.73;1662882;86;21215;-64
2021/01/24 05:06:46;;;;;;;18.65;9.05;;;;;;;4.04;81.57;96075.44;1619249;88;21195;-64
2021/01/24 05:09:17;;;;;;;16.80;8.80;;;;;;;3.99;81.75;96078.92;1619671;88;21198;-64
2021/01/24 05:11:51;;;;;;;16.60;8.58;;;;;;;3.96;81.61;96080.50;1619531;87;21223;-64
2021/01/24 05:14:24;;;;;;;12.20;8.38;;;;;;;3.93;81.88;96083.84;1662919;86;21195;-65
2021/01/24 05:16:55;;;;;;;13.32;6.47;;;;;;;3.90;81.94;96088.78;1619145;87;21358;-64
2021/01/24 05:19:23;;;;;;;11.45;7.15;;;;;;;3.86;82.19;96087.93;1662634;86;21314;-64
2021/01/24 05:21:52;;;;;;;13.25;7.72;;;;;;;3.82;82.08;96088.23;1624038;88;21619;-64
2021/01/24 05:24:21;;;;;;;15.68;7.87;;;;;;;3.80;82.03;96087.58;1619292;87;21194;-65
2021/01/24 05:26:51;;;;;;;14.70;8.10;;;;;;;3.80;81.97;96103.46;1662711;86;21242;-63
2021/01/24 05:29:26;;;;;;;15.58;7.50;;;;;;;3.78;81.98;96108.73;1619153;88;21361;-64
2021/01/24 05:31:56;;;;;;;14.98;7.22;;;;;;;3.79;81.99;96106.98;1619593;88;21267;-64
2021/01/24 05:34:28;;;;;;;12.37;7.58;;;;;;;3.75;82.05;96111.59;1662534;86;21319;-64
2021/01/24 05:36:58;;;;;;;17.35;8.53;;;;;;;3.74;81.94;96115.58;1619262;87;21619;-64
2021/01/24 05:39:30;;;;;;;20.40;8.25;;;;;;;3.73;81.66;96111.42;1662892;86;22103;-64
2021/01/24 05:42:00;;;;;;;14.43;7.75;;;;;;;3.68;81.90;96125.16;1619230;87;21309;-64
2021/01/24 05:44:29;;;;;;;21.17;7.87;;;;;;;3.65;81.76;96128.02;1662601;86;21203;-63
2021/01/24 05:47:03;;;;;;;16.75;8.93;;;;;;;3.60;82.48;96132.30;1619350;88;21196;-64
2021/01/24 05:49:33;;;;;;;14.10;7.95;;;;;;;3.60;82.58;96132.77;1619308;87;21216;-64
2021/01/24 05:52:07;;;;;;;10.98;6.30;;;;;;;3.59;82.72;96129.39;1662946;86;21608;-64
2021/01/24 05:54:44;;;;;;;15.55;9.43;;;;;;;3.59;82.75;96128.58;1619090;88;21203;-65
2021/01/24 05:57:15;;;;;;;10.78;6.28;;;;;;;3.53;83.57;96129.98;1662564;86;21218;-64
2021/01/24 05:59:53;;;;;;;13.03;7.50;;;;;;;3.53;82.92;96137.68;1619150;88;21762;-64
2021/01/24 06:02:24;;;;;;;18.25;7.58;;;;;;;3.52;82.88;96145.51;1662856;86;21187;-64
2021/01/24 06:04:55;;;;;;;16.73;8.28;;;;;;;3.49;82.71;96148.37;1619309;88;21226;-64
2021/01/24 06:07:25;;;;;;;15.30;8.35;;;;;;;3.42;82.59;96145.58;1674839;83;21185;-64
2021/01/24 06:09:54;;;;;;;14.43;7.62;;;;;;;3.43;82.87;96146.36;1665178;86;21198;-64
2021/01/24 06:12:24;;;;;;;18.40;8.58;;;;;;;3.43;82.80;96151.02;1664688;85;21150;-64
2021/01/24 06:14:52;;;;;;;11.65;7.17;;;;;;;3.44;82.58;96150.08;1664887;85;21195;-64
2021/01/24 06:17:41;;;;;;;15.53;8.65;;;;;;;3.47;82.37;96150.25;1664654;86;21202;-64
2021/01/24 06:20:14;;;;;;;14.50;7.28;;;;;;;3.47;82.26;96151.06;1664498;86;21185;-64
2021/01/24 06:23:24;;;;;;;17.02;8.48;;;;;;;3.48;82.21;96150.59;1664693;85;21185;-64
2021/01/24 06:25:58;;;;;;;14.95;8.60;;;;;;;3.47;82.41;96147.69;1664473;85;21245;-64
2021/01/24 06:28:44;;;;;;;13.13;7.40;;;;;;;3.44;82.49;96156.97;1664360;86;21157;-65
2021/01/24 06:31:19;;;;;;;13.95;9.13;;;;;;;3.43;82.46;96163.84;1664873;86;21161;-64
2021/01/24 06:34:08;;;;;;;16.87;9.30;;;;;;;3.43;82.39;96157.91;1664867;85;21229;-64
2021/01/24 06:36:38;;;;;;;18.05;8.78;;;;;;;3.43;82.40;96161.28;1648372;86;21215;-64
2021/01/24 06:39:06;;;;;;;20.23;9.38;;;;;;;3.41;82.77;96166.23;1680258;84;21173;-64
2021/01/24 06:41:47;;;;;;;17.30;9.03;;;;;;;3.34;83.52;96168.09;1680311;84;21172;-64
2021/01/24 06:44:36;;;;;;;21.90;10.58;;;;;;;3.29;84.24;96157.44;1680561;84;21188;-68
2021/01/24 06:47:10;;;;;;;13.32;7.47;;;;;;;3.26;84.21;96161.58;1680437;84;21228;-65
2021/01/24 06:49:44;;;;;;;15.60;8.08;;;;;;;3.29;83.79;96161.30;1676458;84;21193;-64
2021/01/24 06:52:56;;;;;;;12.58;7.75;;;;;;;3.30;83.59;96162.91;1680728;85;21209;-64
2021/01/24 06:55:27;;;;;;;12.37;7.72;;;;;;;3.34;83.48;96161.69;1622310;87;21588;-65
2021/01/24 06:57:55;;;;;;;11.80;7.60;;;;;;;3.39;83.31;96159.95;1649563;87;21186;-65
2021/01/24 07:00:45;;;;;;;12.68;8.60;;;;;;;3.47;83.21;96160.52;1649501;86;21445;-64
2021/01/24 07:03:21;;;;;;;19.50;9.13;;;;;;;3.56;83.15;96154.54;1674470;84;21236;-64
2021/01/24 07:05:49;;;;;;;14.10;9.08;;;;;;;3.68;83.11;96155.48;1674730;84;21243;-64
2021/01/24 07:08:33;;;;;;;11.15;7.47;;;;;;;3.74;82.87;96161.79;1674397;85;21358;-63
2021/01/24 07:11:01;;;;;;;15.40;7.97;;;;;;;3.85;82.81;96165.94;1674259;84;21322;-69
2021/01/24 07:13:32;;;;;;;20.17;8.75;;;;;;;3.96;82.67;96160.59;1674279;84;21355;-64
2021/01/24 07:18:48;;;;;;;11.68;8.55;;;;;;;4.18;82.12;96164.00;1667445;85;22352;-64
2021/01/24 07:21:18;;;;;;;11.53;8.13;;;;;;;4.27;81.65;96148.52;1667728;85;21273;-65
2021/01/24 07:23:48;;;;;;;16.07;8.73;;;;;;;4.29;81.29;96146.59;1667791;85;21164;-64
2021/01/24 07:26:18;;;;;;;23.15;9.23;;;;;;;4.39;81.01;96150.86;1667675;85;21176;-64
2021/01/24 07:28:47;;;;;;;14.40;8.05;;;;;;;4.50;81.32;96150.63;1667824;85;21187;-64
2021/01/24 07:31:15;;;;;;;11.68;6.70;;;;;;;4.65;81.04;96149.12;1643267;85;21240;-64
2021/01/24 07:33:44;;;;;;;19.17;9.60;;;;;;;4.69;78.90;96147.87;1667889;85;21175;-65
2021/01/24 07:36:16;;;;;;;12.58;8.53;;;;;;;4.69;78.25;96143.53;1667564;85;21180;-64
2021/01/24 07:38:45;;;;;;;20.00;8.65;;;;;;;4.73;78.03;96144.84;1667708;85;21140;-64
2021/01/24 07:41:14;;;;;;;12.43;8.18;;;;;;;4.75;77.92;96149.34;1668276;85;21290;-64
2021/01/24 07:43:43;;;;;;;11.30;7.15;;;;;;;4.84;78.23;96142.97;1667820;85;21521;-64
2021/01/24 07:46:11;;;;;;;11.28;7.70;;;;;;;4.90;78.58;96144.48;1667822;85;21187;-64
2021/01/24 07:48:40;;;;;;;19.17;9.23;;;;;;;4.97;78.23;96156.25;1667789;85;21159;-68
2021/01/24 07:51:09;;;;;;;17.95;10.23;;;;;;;5.08;78.63;96149.55;1667809;85;21166;-64
2021/01/24 07:53:37;;;;;;;16.67;9.13;;;;;;;5.14;77.97;96145.88;1668041;85;21175;-64
2021/01/24 07:56:26;;;;;;;14.47;8.88;;;;;;;5.17;77.63;96149.45;1667823;85;21152;-64
2021/01/24 07:58:55;;;;;;;16.80;9.80;;;;;;;5.13;77.88;96146.05;1678802;84;21128;-64
2021/01/24 08:01:24;;;;;;;18.30;9.63;;;;;;;5.20;78.02;96140.61;1678645;84;21238;-64
2021/01/24 08:03:52;;;;;;;18.75;9.23;;;;;;;5.35;78.31;96144.69;1678523;84;21202;-64
2021/01/24 08:06:20;;;;;;;15.90;8.58;;;;;;;5.46;78.23;96138.78;1678566;84;21612;-64
2021/01/24 08:08:49;;;;;;;18.82;10.32;;;;;;;5.56;77.76;96134.30;1678920;84;21150;-64
2021/01/24 08:11:19;;;;;;;15.15;8.83;;;;;;;5.51;76.94;96139.14;1678551;84;21587;-64
2021/01/24 08:13:48;;;;;;;17.92;8.55;;;;;;;5.50;77.02;96143.95;1678707;84;21179;-64
2021/01/24 08:16:41;;;;;;;16.77;9.33;;;;;;;5.58;76.87;96146.56;1678571;84;21822;-64
2021/01/24 08:19:15;;;;;;;15.10;9.48;;;;;;;5.68;77.43;96158.81;1678539;84;21309;-64
2021/01/24 08:21:44;;;;;;;20.32;10.93;;;;;;;5.86;77.74;96164.34;1678722;84;21217;-65
2021/01/24 08:24:14;;;;;;;18.02;11.10;;;;;;;6.02;77.06;96170.86;1678835;84;21171;-64
2021/01/24 08:26:42;;;;;;;18.52;11.20;;;;;;;6.04;75.71;96172.30;1678869;84;21168;-64
2021/01/24 08:29:11;;;;;;;23.35;10.82;;;;;;;6.12;76.12;96181.34;1678679;84;21167;-64
2021/01/24 08:31:41;;;;;;;15.38;9.25;;;;;;;6.28;76.42;96180.56;1678909;84;21189;-65
2021/01/24 08:34:10;;;;;;;16.85;9.50;;;;;;;6.43;76.21;96178.16;1679042;84;21257;-64
2021/01/24 08:36:39;;;;;;;20.02;11.20;;;;;;;6.57;75.35;96187.85;1678973;84;21231;-64
2021/01/24 08:39:07;;;;;;;17.27;10.70;;;;;;;6.66;75.41;96190.73;1678802;84;21174;-65
2021/01/24 08:41:39;;;;;;;22.70;10.98;;;;;;;6.74;74.21;96195.08;1679114;84;21714;-64
2021/01/24 08:44:16;;;;;;;22.50;10.93;;;;;;;6.69;73.42;96202.05;1679228;84;21262;-64
2021/01/24 08:46:48;;;;;;;16.60;10.23;;;;;;;6.76;74.37;96196.55;1679095;84;21175;-65
2021/01/24 08:49:25;;;;;;;22.02;11.45;;;;;;;6.85;74.53;96197.36;1679166;84;21190;-65
2021/01/24 08:51:56;;;;;;;28.00;12.95;;;;;;;6.96;74.60;96199.61;1679134;84;21770;-65
2021/01/24 08:54:33;;;;;;;23.75;13.93;;;;;;;7.00;73.13;96199.60;1679003;84;21293;-64
2021/01/24 08:57:18;;;;;;;32.65;14.50;;;;;;;6.71;74.66;96201.38;1679144;84;21163;-67
2021/01/24 08:59:58;;;;;;;21.73;12.05;;;;;;;6.94;74.73;96202.34;1679276;84;21170;-64
2021/01/24 09:02:36;;;;;;;18.05;10.63;;;;;;;7.28;74.72;96195.66;1679165;84;21172;-67
2021/01/24 09:05:28;;;;;;;22.65;11.68;;;;;;;7.57;74.33;96200.27;1678863;84;21604;-64
2021/01/24 09:07:56;;;;;;;26.17;11.53;;;;;;;7.89;74.48;96191.59;1623788;88;21713;-66
2021/01/24 09:10:30;;;;;;;19.52;10.82;;;;;;;8.20;72.97;96188.52;1623792;88;21373;-66
2021/01/24 09:13:01;;;;;;;24.12;11.10;;;;;;;8.44;71.81;96188.88;1623329;88;21624;-66
2021/01/24 09:15:33;;;;;;;25.88;12.73;;;;;;;8.65;68.92;96186.44;1623484;88;21263;-65
2021/01/24 09:20:45;;;;;;;24.77;10.05;;;;;;;9.08;67.89;96184.94;1620725;88;21195;-65
2021/01/24 09:23:13;;;;;;;17.50;10.08;;;;;;;9.48;66.98;96197.49;1592363;88;21246;-66
2021/01/24 09:25:41;;;;;;;16.48;9.65;;;;;;;9.80;66.55;96211.88;1606888;88;21421;-65
2021/01/24 09:28:10;;;;;;;18.37;9.43;;;;;;;9.95;64.32;96198.41;1620703;87;21197;-65
2021/01/24 09:30:40;;;;;;;19.65;9.50;;;;;;;10.10;63.88;96199.66;1694400;83;21285;-65
2021/01/24 09:33:08;;;;;;;14.23;8.33;;;;;;;10.05;61.98;96195.50;1706000;84;21276;-64
2021/01/24 09:35:36;;;;;;;14.75;8.58;;;;;;;9.99;63.06;96200.13;1705740;83;21167;-65
2021/01/24 09:38:05;;;;;;;17.40;8.98;;;;;;;10.04;63.07;96190.52;1705757;83;21301;-66
2021/01/24 09:40:32;;;;;;;22.30;9.90;;;;;;;9.99;62.14;96194.95;1705782;84;21584;-66
2021/01/24 09:43:01;;;;;;;17.45;7.35;;;;;;;9.47;64.62;96197.66;1705880;83;21333;-64
2021/01/24 09:45:29;;;;;;;18.30;8.35;;;;;;;9.39;64.79;96185.59;1706000;83;21199;-66
2021/01/24 09:47:57;;;;;;;12.13;7.80;;;;;;;9.32;65.02;96181.31;1693453;84;21650;-66
2021/01/24 09:50:26;;;;;;;18.20;9.00;;;;;;;9.25;65.77;96185.59;1728386;82;21190;-66
2021/01/24 09:52:54;;;;;;;19.12;9.03;;;;;;;8.95;66.62;96187.31;1728441;82;21160;-63
2021/01/24 09:55:23;;;;;;;12.07;7.75;;;;;;;8.86;67.56;96187.90;1728487;81;21563;-66
2021/01/24 09:57:51;;;;;;;16.60;8.73;;;;;;;9.02;67.27;96194.23;1728740;82;21159;-66
2021/01/24 10:00:20;;;;;;;13.95;8.45;;;;;;;9.14;66.19;96202.38;1728511;81;21167;-66
2021/01/24 10:02:48;;;;;;;16.62;7.92;;;;;;;9.54;65.96;96183.80;1728473;82;21473;-66
2021/01/24 10:05:17;;;;;;;17.02;8.75;;;;;;;10.21;63.12;96188.03;1728671;81;21643;-66
2021/01/24 10:07:45;;;;;;;16.35;9.98;;;;;;;10.62;62.28;96185.66;1728630;82;21670;-65
2021/01/24 10:10:14;;;;;;;15.63;9.48;;;;;;;10.78;61.59;96188.78;1728536;82;21595;-66
2021/01/24 10:12:43;;;;;;;13.85;8.60;;;;;;;11.04;59.83;96187.41;1728651;82;21163;-66
2021/01/24 10:15:12;;;;;;;17.23;8.48;;;;;;;11.44;58.74;96182.28;1728684;82;21171;-64
2021/01/24 10:17:40;;;;;;;16.00;8.50;;;;;;;11.40;59.09;96177.16;1728408;82;21163;-64
2021/01/24 10:20:12;;;;;;;19.42;7.83;;;;;;;11.48;57.81;96183.22;1728694;82;21159;-66
2021/01/24 10:22:40;;;;;;;15.45;8.48;;;;;;;11.59;57.26;96182.67;1728776;81;21162;-63
2021/01/24 10:25:09;;;;;;;16.50;7.70;;;;;;;11.56;57.64;96185.14;1728535;82;21174;-66
2021/01/24 10:27:43;;;;;;;21.05;8.83;;;;;;;11.62;57.36;96177.89;1728489;82;21202;-66
2021/01/24 10:30:15;;;;;;;15.80;9.28;;;;;;;11.80;56.82;96177.39;1725428;82;21167;-65
2021/01/24 10:32:43;;;;;;;18.42;9.00;;;;;;;11.80;56.81;96180.00;1723251;82;21553;-66
2021/01/24 10:35:11;;;;;;;18.80;9.95;;;;;;;11.57;56.96;96178.95;1723207;82;21156;-66
2021/01/24 10:37:40;;;;;;;16.12;8.83;;;;;;;11.66;57.14;96177.81;1723232;82;21159;-66
2021/01/24 10:40:09;;;;;;;22.07;9.78;;;;;;;11.87;57.33;96176.92;1723162;82;21603;-66
2021/01/24 10:42:38;;;;;;;24.60;12.75;;;;;;;11.93;57.31;96171.45;1723272;82;21325;-66
2021/01/24 10:45:09;;;;;;;17.65;10.72;;;;;;;11.97;57.55;96165.67;1723185;82;21175;-65
2021/01/24 10:47:38;;;;;;;22.52;12.95;;;;;;;12.15;57.67;96162.52;1723140;82;21214;-65
2021/01/24 10:50:11;;;;;;;16.70;10.35;;;;;;;12.53;57.36;96154.48;1723031;82;21155;-66
2021/01/24 10:52:39;;;;;;;23.90;12.80;;;;;;;12.91;56.91;96156.53;1723147;82;21275;-66
2021/01/24 10:55:10;;;;;;;21.27;9.78;;;;;;;13.07;55.86;96156.91;1723040;82;21176;-64
2021/01/24 10:57:38;;;;;;;16.02;8.85;;;;;;;13.38;55.18;96151.60;1723027;82;21128;-65
2021/01/24 11:00:28;;;;;;;12.23;7.78;;;;;;;13.53;53.10;96141.23;1723411;82;21289;-65
2021/01/24 11:02:58;;;;;;;17.00;7.80;;;;;;;13.64;52.30;96144.51;1674075;85;21167;-65
2021/01/24 11:05:26;;;;;;;14.07;7.80;;;;;;;13.59;52.59;96152.14;1674320;86;21603;-67
2021/01/24 11:07:55;;;;;;;12.05;7.80;;;;;;;13.65;53.42;96152.64;1674391;84;21590;-65
2021/01/24 11:10:24;;;;;;;13.62;6.72;;;;;;;13.47;52.51;96153.77;1674359;84;21183;-66
2021/01/24 11:12:53;;;;;;;10.43;6.05;;;;;;;13.22;52.19;96155.44;1674524;84;21298;-66
2021/01/24 11:15:21;;;;;;;10.05;5.87;;;;;;;13.20;52.67;96163.95;1674533;84;21166;-66
2021/01/24 11:17:49;;;;;;;10.65;6.12;;;;;;;13.22;53.61;96158.05;1674691;86;21210;-66
2021/01/24 11:20:18;;;;;;;10.98;6.58;;;;;;;13.28;52.59;96155.91;1674815;86;21214;-67
2021/01/24 11:22:47;;;;;;;12.78;6.83;;;;;;;12.93;53.33;96151.41;1674304;86;21166;-66
2021/01/24 11:25:17;;;;;;;15.43;7.70;;;;;;;12.60;54.71;96158.42;1674342;84;21163;-65
2021/01/24 11:27:45;;;;;;;10.60;6.45;;;;;;;12.54;54.40;96164.41;1674553;86;21166;-69
2021/01/24 11:33:16;;;;;;;10.72;6.10;;;;;;;12.54;55.05;96157.89;1670268;85;21386;-65
2021/01/24 11:35:44;;;;;;;13.60;6.53;;;;;;;12.49;55.20;96157.18;1669972;85;21175;-65
2021/01/24 11:38:12;;;;;;;11.15;6.83;;;;;;;12.47;54.81;96154.48;1670481;85;21718;-65
2021/01/24 11:40:40;;;;;;;11.40;7.25;;;;;;;12.41;55.65;96153.98;1669943;85;21213;-65
2021/01/24 11:43:08;;;;;;;11.85;7.42;;;;;;;12.41;56.03;96151.39;1669973;84;21167;-65
2021/01/24 11:45:36;;;;;;;11.57;6.83;;;;;;;12.41;56.13;96148.78;1669912;85;21187;-65
2021/01/24 11:48:06;;;;;;;10.78;5.87;;;;;;;12.39;55.40;96156.78;1669866;84;21723;-65
2021/01/24 11:50:35;;;;;;;14.28;6.50;;;;;;;12.36;54.97;96157.17;1670136;85;21271;-65
2021/01/24 11:53:03;;;;;;;9.38;6.30;;;;;;;12.34;55.44;96153.46;1670183;85;22153;-65
2021/01/24 11:55:31;;;;;;;10.48;5.55;;;;;;;12.35;55.77;96151.66;1669832;84;21200;-65
2021/01/24 11:57:59;;;;;;;6.55;3.87;;;;;;;12.38;56.04;96149.96;1669925;85;21215;-66